sensor_id;sensor_type;location;lat;lon;timestamp;temperature;humidity
49731;DHT22;35622;52.008;5.426;2023-12-20T00:00:24;10.80;95.00
49731;DHT22;35622;52.008;5.426;2023-12-20T00:02:50;10.80;94.70
49731;DHT22;35622;52.008;5.426;2023-12-20T00:05:15;10.80;94.70
49731;DHT22;35622;52.008;5.426;2023-12-20T00:07:41;10.80;94.70
49731;DHT22;35622;52.008;5.426;2023-12-20T00:10:07;10.60;94.70
49731;DHT22;35622;52.008;5.426;2023-12-20T00:12:33;10.60;94.80
49731;DHT22;35622;52.008;5.426;2023-12-20T00:14:58;10.40;95.00
49731;DHT22;35622;52.008;5.426;2023-12-20T00:17:24;10.40;95.10
49731;DHT22;35622;52.008;5.426;2023-12-20T00:19:49;10.50;95.10
49731;DHT22;35622;52.008;5.426;2023-12-20T00:22:15;10.50;95.10
49731;DHT22;35622;52.008;5.426;2023-12-20T00:24:41;10.50;95.10
49731;DHT22;35622;52.008;5.426;2023-12-20T00:27:06;10.50;95.00
49731;DHT22;35622;52.008;5.426;2023-12-20T00:29:32;10.50;94.90
49731;DHT22;35622;52.008;5.426;2023-12-20T00:31:57;10.50;94.90
49731;DHT22;35622;52.008;5.426;2023-12-20T00:34:23;10.50;94.90
49731;DHT22;35622;52.008;5.426;2023-12-20T00:36:48;10.50;94.60
49731;DHT22;35622;52.008;5.426;2023-12-20T00:39:14;10.50;94.40
49731;DHT22;35622;52.008;5.426;2023-12-20T00:41:39;10.50;94.30
49731;DHT22;35622;52.008;5.426;2023-12-20T00:44:05;10.40;94.20
49731;DHT22;35622;52.008;5.426;2023-12-20T00:46:31;10.40;94.20
49731;DHT22;35622;52.008;5.426;2023-12-20T00:49:05;10.40;94.00
49731;DHT22;35622;52.008;5.426;2023-12-20T00:51:30;10.30;94.00
49731;DHT22;35622;52.008;5.426;2023-12-20T00:53:56;10.20;93.90
49731;DHT22;35622;52.008;5.426;2023-12-20T00:56:21;10.10;93.80
49731;DHT22;35622;52.008;5.426;2023-12-20T00:58:47;10.10;93.90
49731;DHT22;35622;52.008;5.426;2023-12-20T01:01:13;10.00;93.90
49731;DHT22;35622;52.008;5.426;2023-12-20T01:03:38;9.90;94.00
49731;DHT22;35622;52.008;5.426;2023-12-20T01:06:04;9.90;94.10
49731;DHT22;35622;52.008;5.426;2023-12-20T01:08:30;9.90;94.20
49731;DHT22;35622;52.008;5.426;2023-12-20T01:10:56;9.90;94.30
49731;DHT22;35622;52.008;5.426;2023-12-20T01:13:21;9.90;94.20
49731;DHT22;35622;52.008;5.426;2023-12-20T01:15:47;9.80;94.20
49731;DHT22;35622;52.008;5.426;2023-12-20T01:18:14;9.80;94.20
49731;DHT22;35622;52.008;5.426;2023-12-20T01:20:40;9.70;94.20
49731;DHT22;35622;52.008;5.426;2023-12-20T01:23:05;9.80;94.20
49731;DHT22;35622;52.008;5.426;2023-12-20T01:25:31;9.80;94.30
49731;DHT22;35622;52.008;5.426;2023-12-20T01:27:56;9.70;94.40
49731;DHT22;35622;52.008;5.426;2023-12-20T01:30:22;9.70;94.20
49731;DHT22;35622;52.008;5.426;2023-12-20T01:32:47;9.70;94.20
49731;DHT22;35622;52.008;5.426;2023-12-20T01:35:13;9.80;94.00
49731;DHT22;35622;52.008;5.426;2023-12-20T01:37:39;9.60;94.10
49731;DHT22;35622;52.008;5.426;2023-12-20T01:40:05;9.50;94.10
49731;DHT22;35622;52.008;5.426;2023-12-20T01:42:30;9.60;94.10
49731;DHT22;35622;52.008;5.426;2023-12-20T01:44:56;9.50;94.30
49731;DHT22;35622;52.008;5.426;2023-12-20T01:47:22;9.50;94.60
49731;DHT22;35622;52.008;5.426;2023-12-20T01:49:48;9.50;94.70
49731;DHT22;35622;52.008;5.426;2023-12-20T01:52:14;9.50;95.00
49731;DHT22;35622;52.008;5.426;2023-12-20T01:54:40;9.50;95.10
49731;DHT22;35622;52.008;5.426;2023-12-20T01:57:07;9.50;95.40
49731;DHT22;35622;52.008;5.426;2023-12-20T01:59:34;9.50;95.60
49731;DHT22;35622;52.008;5.426;2023-12-20T02:02:00;9.70;95.40
49731;DHT22;35622;52.008;5.426;2023-12-20T02:04:26;9.70;95.10
49731;DHT22;35622;52.008;5.426;2023-12-20T02:06:52;9.60;95.10
49731;DHT22;35622;52.008;5.426;2023-12-20T02:09:18;9.70;95.20
49731;DHT22;35622;52.008;5.426;2023-12-20T02:11:44;9.70;95.20
49731;DHT22;35622;52.008;5.426;2023-12-20T02:14:10;9.70;95.40
49731;DHT22;35622;52.008;5.426;2023-12-20T02:16:36;9.80;95.30
49731;DHT22;35622;52.008;5.426;2023-12-20T02:19:03;9.90;95.30
49731;DHT22;35622;52.008;5.426;2023-12-20T02:21:32;9.80;95.30
49731;DHT22;35622;52.008;5.426;2023-12-20T02:23:59;9.80;95.10
49731;DHT22;35622;52.008;5.426;2023-12-20T02:26:24;9.80;95.10
49731;DHT22;35622;52.008;5.426;2023-12-20T02:28:50;9.80;95.20
49731;DHT22;35622;52.008;5.426;2023-12-20T02:31:16;9.80;95.30
49731;DHT22;35622;52.008;5.426;2023-12-20T02:33:41;9.80;95.50
49731;DHT22;35622;52.008;5.426;2023-12-20T02:36:07;9.80;95.60
49731;DHT22;35622;52.008;5.426;2023-12-20T02:38:33;9.80;95.50
49731;DHT22;35622;52.008;5.426;2023-12-20T02:40:59;9.70;95.60
49731;DHT22;35622;52.008;5.426;2023-12-20T02:43:25;9.80;95.80
49731;DHT22;35622;52.008;5.426;2023-12-20T02:45:50;9.80;95.70
49731;DHT22;35622;52.008;5.426;2023-12-20T02:48:16;9.90;95.80
49731;DHT22;35622;52.008;5.426;2023-12-20T02:50:41;9.80;95.70
49731;DHT22;35622;52.008;5.426;2023-12-20T02:53:07;9.90;95.70
49731;DHT22;35622;52.008;5.426;2023-12-20T02:55:33;9.80;95.70
49731;DHT22;35622;52.008;5.426;2023-12-20T02:57:58;9.90;95.70
49731;DHT22;35622;52.008;5.426;2023-12-20T03:00:24;9.90;95.80
49731;DHT22;35622;52.008;5.426;2023-12-20T03:02:49;10.00;96.40
49731;DHT22;35622;52.008;5.426;2023-12-20T03:05:15;9.90;95.90
49731;DHT22;35622;52.008;5.426;2023-12-20T03:07:41;9.90;96.20
49731;DHT22;35622;52.008;5.426;2023-12-20T03:10:06;10.00;96.30
49731;DHT22;35622;52.008;5.426;2023-12-20T03:12:33;10.00;96.00
49731;DHT22;35622;52.008;5.426;2023-12-20T03:14:59;10.10;96.00
49731;DHT22;35622;52.008;5.426;2023-12-20T03:17:24;10.10;96.00
49731;DHT22;35622;52.008;5.426;2023-12-20T03:19:50;10.20;96.00
49731;DHT22;35622;52.008;5.426;2023-12-20T03:22:15;10.10;95.80
49731;DHT22;35622;52.008;5.426;2023-12-20T03:24:41;10.00;96.00
49731;DHT22;35622;52.008;5.426;2023-12-20T03:27:07;10.10;96.10
49731;DHT22;35622;52.008;5.426;2023-12-20T03:29:32;10.10;96.30
49731;DHT22;35622;52.008;5.426;2023-12-20T03:31:58;10.20;96.30
49731;DHT22;35622;52.008;5.426;2023-12-20T03:34:23;10.20;96.30
49731;DHT22;35622;52.008;5.426;2023-12-20T03:36:49;10.00;96.40
49731;DHT22;35622;52.008;5.426;2023-12-20T03:39:14;10.10;96.60
49731;DHT22;35622;52.008;5.426;2023-12-20T03:41:40;10.20;96.40
49731;DHT22;35622;52.008;5.426;2023-12-20T03:44:06;10.20;96.40
49731;DHT22;35622;52.008;5.426;2023-12-20T03:46:31;10.10;96.60
49731;DHT22;35622;52.008;5.426;2023-12-20T03:48:57;10.30;96.50
49731;DHT22;35622;52.008;5.426;2023-12-20T03:51:22;10.30;96.60
49731;DHT22;35622;52.008;5.426;2023-12-20T03:53:48;10.30;96.70
49731;DHT22;35622;52.008;5.426;2023-12-20T03:56:13;10.30;96.70
49731;DHT22;35622;52.008;5.426;2023-12-20T03:58:39;10.40;96.60
49731;DHT22;35622;52.008;5.426;2023-12-20T04:01:09;10.40;96.70
49731;DHT22;35622;52.008;5.426;2023-12-20T04:03:36;10.40;96.50
49731;DHT22;35622;52.008;5.426;2023-12-20T04:06:01;10.20;96.80
49731;DHT22;35622;52.008;5.426;2023-12-20T04:08:27;10.20;97.00
49731;DHT22;35622;52.008;5.426;2023-12-20T04:10:52;10.30;97.10
49731;DHT22;35622;52.008;5.426;2023-12-20T04:13:18;10.30;97.10
49731;DHT22;35622;52.008;5.426;2023-12-20T04:15:44;10.20;97.10
49731;DHT22;35622;52.008;5.426;2023-12-20T04:18:09;10.10;97.40
49731;DHT22;35622;52.008;5.426;2023-12-20T04:20:35;10.10;97.60
49731;DHT22;35622;52.008;5.426;2023-12-20T04:23:01;10.30;97.60
49731;DHT22;35622;52.008;5.426;2023-12-20T04:25:26;10.30;97.50
49731;DHT22;35622;52.008;5.426;2023-12-20T04:27:52;10.30;97.70
49731;DHT22;35622;52.008;5.426;2023-12-20T04:30:17;10.20;97.60
49731;DHT22;35622;52.008;5.426;2023-12-20T04:32:43;10.20;97.80
49731;DHT22;35622;52.008;5.426;2023-12-20T04:35:08;10.20;97.70
49731;DHT22;35622;52.008;5.426;2023-12-20T04:37:34;10.10;97.70
49731;DHT22;35622;52.008;5.426;2023-12-20T04:40:00;9.90;98.00
49731;DHT22;35622;52.008;5.426;2023-12-20T04:42:25;10.00;98.10
49731;DHT22;35622;52.008;5.426;2023-12-20T04:44:51;10.10;98.20
49731;DHT22;35622;52.008;5.426;2023-12-20T04:47:16;10.20;98.10
49731;DHT22;35622;52.008;5.426;2023-12-20T04:49:42;10.30;97.80
49731;DHT22;35622;52.008;5.426;2023-12-20T04:52:07;9.90;98.40
49731;DHT22;35622;52.008;5.426;2023-12-20T04:54:33;9.90;98.20
49731;DHT22;35622;52.008;5.426;2023-12-20T04:56:59;10.00;98.30
49731;DHT22;35622;52.008;5.426;2023-12-20T04:59:24;10.00;98.50
49731;DHT22;35622;52.008;5.426;2023-12-20T05:01:50;10.00;98.50
49731;DHT22;35622;52.008;5.426;2023-12-20T05:04:15;10.00;98.40
49731;DHT22;35622;52.008;5.426;2023-12-20T05:06:41;10.20;98.50
49731;DHT22;35622;52.008;5.426;2023-12-20T05:09:06;10.10;98.50
49731;DHT22;35622;52.008;5.426;2023-12-20T05:11:32;10.10;98.40
49731;DHT22;35622;52.008;5.426;2023-12-20T05:13:58;9.90;99.40
49731;DHT22;35622;52.008;5.426;2023-12-20T05:16:23;10.00;98.90
49731;DHT22;35622;52.008;5.426;2023-12-20T05:18:49;10.10;99.10
49731;DHT22;35622;52.008;5.426;2023-12-20T05:21:18;10.20;99.10
49731;DHT22;35622;52.008;5.426;2023-12-20T05:23:43;10.30;99.00
49731;DHT22;35622;52.008;5.426;2023-12-20T05:26:09;10.40;98.80
49731;DHT22;35622;52.008;5.426;2023-12-20T05:28:35;10.50;98.30
49731;DHT22;35622;52.008;5.426;2023-12-20T05:31:00;10.50;98.30
49731;DHT22;35622;52.008;5.426;2023-12-20T05:33:26;10.40;98.30
49731;DHT22;35622;52.008;5.426;2023-12-20T05:35:51;10.50;98.30
49731;DHT22;35622;52.008;5.426;2023-12-20T05:38:17;10.60;98.40
49731;DHT22;35622;52.008;5.426;2023-12-20T05:40:43;10.70;98.20
49731;DHT22;35622;52.008;5.426;2023-12-20T05:43:08;10.90;97.90
49731;DHT22;35622;52.008;5.426;2023-12-20T05:45:34;11.00;98.00
49731;DHT22;35622;52.008;5.426;2023-12-20T05:47:59;10.90;97.70
49731;DHT22;35622;52.008;5.426;2023-12-20T05:50:25;11.00;97.60
49731;DHT22;35622;52.008;5.426;2023-12-20T05:52:51;10.90;97.50
49731;DHT22;35622;52.008;5.426;2023-12-20T05:55:16;10.90;97.90
49731;DHT22;35622;52.008;5.426;2023-12-20T05:57:42;10.90;97.40
49731;DHT22;35622;52.008;5.426;2023-12-20T06:00:09;11.00;97.20
49731;DHT22;35622;52.008;5.426;2023-12-20T06:02:35;11.00;97.20
49731;DHT22;35622;52.008;5.426;2023-12-20T06:05:03;11.10;97.20
49731;DHT22;35622;52.008;5.426;2023-12-20T06:07:29;11.00;97.20
49731;DHT22;35622;52.008;5.426;2023-12-20T06:09:55;11.10;97.20
49731;DHT22;35622;52.008;5.426;2023-12-20T06:12:20;11.00;97.40
49731;DHT22;35622;52.008;5.426;2023-12-20T06:14:46;11.00;97.10
49731;DHT22;35622;52.008;5.426;2023-12-20T06:17:12;10.90;97.40
49731;DHT22;35622;52.008;5.426;2023-12-20T06:19:37;10.70;97.70
49731;DHT22;35622;52.008;5.426;2023-12-20T06:22:03;10.70;97.90
49731;DHT22;35622;52.008;5.426;2023-12-20T06:24:28;10.90;97.80
49731;DHT22;35622;52.008;5.426;2023-12-20T06:26:55;10.80;97.40
49731;DHT22;35622;52.008;5.426;2023-12-20T06:29:20;10.90;97.40
49731;DHT22;35622;52.008;5.426;2023-12-20T06:31:46;10.60;97.60
49731;DHT22;35622;52.008;5.426;2023-12-20T06:34:12;10.70;97.90
49731;DHT22;35622;52.008;5.426;2023-12-20T06:36:37;10.60;97.80
49731;DHT22;35622;52.008;5.426;2023-12-20T06:39:03;10.60;98.10
49731;DHT22;35622;52.008;5.426;2023-12-20T06:41:30;10.70;97.90
49731;DHT22;35622;52.008;5.426;2023-12-20T06:43:55;10.70;97.50
49731;DHT22;35622;52.008;5.426;2023-12-20T06:46:21;10.80;97.70
49731;DHT22;35622;52.008;5.426;2023-12-20T06:48:47;10.70;97.70
49731;DHT22;35622;52.008;5.426;2023-12-20T06:51:15;10.70;97.80
49731;DHT22;35622;52.008;5.426;2023-12-20T06:53:40;10.60;97.80
49731;DHT22;35622;52.008;5.426;2023-12-20T06:56:06;10.70;98.00
49731;DHT22;35622;52.008;5.426;2023-12-20T06:58:32;10.70;98.20
49731;DHT22;35622;52.008;5.426;2023-12-20T07:00:58;10.70;98.10
49731;DHT22;35622;52.008;5.426;2023-12-20T07:03:24;10.60;98.30
49731;DHT22;35622;52.008;5.426;2023-12-20T07:05:49;10.60;98.20
49731;DHT22;35622;52.008;5.426;2023-12-20T07:08:15;10.70;97.90
49731;DHT22;35622;52.008;5.426;2023-12-20T07:10:41;10.60;98.20
49731;DHT22;35622;52.008;5.426;2023-12-20T07:13:07;10.50;98.40
49731;DHT22;35622;52.008;5.426;2023-12-20T07:15:33;10.50;98.50
49731;DHT22;35622;52.008;5.426;2023-12-20T07:17:58;10.40;98.70
49731;DHT22;35622;52.008;5.426;2023-12-20T07:20:26;10.40;98.60
49731;DHT22;35622;52.008;5.426;2023-12-20T07:22:51;10.50;98.60
49731;DHT22;35622;52.008;5.426;2023-12-20T07:25:17;10.60;98.40
49731;DHT22;35622;52.008;5.426;2023-12-20T07:27:43;10.70;98.10
49731;DHT22;35622;52.008;5.426;2023-12-20T07:30:09;10.70;98.00
49731;DHT22;35622;52.008;5.426;2023-12-20T07:32:35;10.80;97.40
49731;DHT22;35622;52.008;5.426;2023-12-20T07:35:00;10.70;97.80
49731;DHT22;35622;52.008;5.426;2023-12-20T07:37:26;10.80;97.80
49731;DHT22;35622;52.008;5.426;2023-12-20T07:39:52;10.80;98.10
49731;DHT22;35622;52.008;5.426;2023-12-20T07:42:17;10.70;98.30
49731;DHT22;35622;52.008;5.426;2023-12-20T07:44:43;10.90;98.10
49731;DHT22;35622;52.008;5.426;2023-12-20T07:47:08;11.10;97.80
49731;DHT22;35622;52.008;5.426;2023-12-20T07:49:34;11.20;97.30
49731;DHT22;35622;52.008;5.426;2023-12-20T07:52:00;11.30;97.00
49731;DHT22;35622;52.008;5.426;2023-12-20T07:54:25;11.10;97.10
49731;DHT22;35622;52.008;5.426;2023-12-20T07:56:51;10.90;97.90
49731;DHT22;35622;52.008;5.426;2023-12-20T07:59:16;10.80;98.00
49731;DHT22;35622;52.008;5.426;2023-12-20T08:01:42;10.70;97.90
49731;DHT22;35622;52.008;5.426;2023-12-20T08:04:08;10.50;98.60
49731;DHT22;35622;52.008;5.426;2023-12-20T08:06:33;10.60;98.80
49731;DHT22;35622;52.008;5.426;2023-12-20T08:08:59;11.00;98.40
49731;DHT22;35622;52.008;5.426;2023-12-20T08:11:25;11.20;97.70
49731;DHT22;35622;52.008;5.426;2023-12-20T08:13:50;11.20;97.40
49731;DHT22;35622;52.008;5.426;2023-12-20T08:16:16;11.10;97.60
49731;DHT22;35622;52.008;5.426;2023-12-20T08:18:43;11.10;98.00
49731;DHT22;35622;52.008;5.426;2023-12-20T08:21:09;11.00;97.50
49731;DHT22;35622;52.008;5.426;2023-12-20T08:23:35;10.90;97.30
49731;DHT22;35622;52.008;5.426;2023-12-20T08:26:07;11.00;97.70
49731;DHT22;35622;52.008;5.426;2023-12-20T08:28:33;11.10;97.30
49731;DHT22;35622;52.008;5.426;2023-12-20T08:31:00;11.10;97.60
49731;DHT22;35622;52.008;5.426;2023-12-20T08:33:25;11.00;97.50
49731;DHT22;35622;52.008;5.426;2023-12-20T08:35:51;11.10;97.80
49731;DHT22;35622;52.008;5.426;2023-12-20T08:38:16;11.00;97.50
49731;DHT22;35622;52.008;5.426;2023-12-20T08:40:43;11.10;97.10
49731;DHT22;35622;52.008;5.426;2023-12-20T08:43:09;11.00;97.40
49731;DHT22;35622;52.008;5.426;2023-12-20T08:45:34;11.20;97.50
49731;DHT22;35622;52.008;5.426;2023-12-20T08:48:00;11.10;97.20
49731;DHT22;35622;52.008;5.426;2023-12-20T08:50:26;11.40;97.10
49731;DHT22;35622;52.008;5.426;2023-12-20T08:52:52;11.60;96.70
49731;DHT22;35622;52.008;5.426;2023-12-20T08:55:18;11.30;96.70
49731;DHT22;35622;52.008;5.426;2023-12-20T08:57:44;11.30;97.00
49731;DHT22;35622;52.008;5.426;2023-12-20T09:00:10;11.30;97.20
49731;DHT22;35622;52.008;5.426;2023-12-20T09:02:36;11.30;97.30
49731;DHT22;35622;52.008;5.426;2023-12-20T09:05:03;11.30;97.20
49731;DHT22;35622;52.008;5.426;2023-12-20T09:07:28;11.30;97.40
49731;DHT22;35622;52.008;5.426;2023-12-20T09:09:57;11.00;97.70
49731;DHT22;35622;52.008;5.426;2023-12-20T09:12:23;10.90;98.60
49731;DHT22;35622;52.008;5.426;2023-12-20T09:14:50;11.00;98.00
49731;DHT22;35622;52.008;5.426;2023-12-20T09:17:16;11.00;98.20
49731;DHT22;35622;52.008;5.426;2023-12-20T09:19:43;11.30;97.80
49731;DHT22;35622;52.008;5.426;2023-12-20T09:22:12;11.30;97.40
49731;DHT22;35622;52.008;5.426;2023-12-20T09:24:38;11.30;97.70
49731;DHT22;35622;52.008;5.426;2023-12-20T09:27:04;11.10;97.80
49731;DHT22;35622;52.008;5.426;2023-12-20T09:29:30;11.10;98.30
49731;DHT22;35622;52.008;5.426;2023-12-20T09:31:56;11.10;98.40
49731;DHT22;35622;52.008;5.426;2023-12-20T09:34:23;11.30;98.50
49731;DHT22;35622;52.008;5.426;2023-12-20T09:36:48;11.40;97.90
49731;DHT22;35622;52.008;5.426;2023-12-20T09:39:16;11.30;97.50
49731;DHT22;35622;52.008;5.426;2023-12-20T09:42:07;11.30;98.00
49731;DHT22;35622;52.008;5.426;2023-12-20T09:44:33;11.50;97.70
49731;DHT22;35622;52.008;5.426;2023-12-20T09:47:05;11.30;97.60
49731;DHT22;35622;52.008;5.426;2023-12-20T09:49:32;11.40;98.20
49731;DHT22;35622;52.008;5.426;2023-12-20T09:52:00;11.40;97.70
49731;DHT22;35622;52.008;5.426;2023-12-20T09:54:26;11.70;97.50
49731;DHT22;35622;52.008;5.426;2023-12-20T09:56:53;11.60;97.30
49731;DHT22;35622;52.008;5.426;2023-12-20T09:59:19;11.40;97.80
49731;DHT22;35622;52.008;5.426;2023-12-20T10:01:45;11.40;98.80
49731;DHT22;35622;52.008;5.426;2023-12-20T10:04:12;11.70;98.00
49731;DHT22;35622;52.008;5.426;2023-12-20T10:06:42;11.90;98.00
49731;DHT22;35622;52.008;5.426;2023-12-20T10:09:09;11.80;97.10
49731;DHT22;35622;52.008;5.426;2023-12-20T10:11:36;12.00;97.40
49731;DHT22;35622;52.008;5.426;2023-12-20T10:14:05;11.90;97.00
49731;DHT22;35622;52.008;5.426;2023-12-20T10:16:32;11.80;97.10
49731;DHT22;35622;52.008;5.426;2023-12-20T10:18:58;11.70;96.70
49731;DHT22;35622;52.008;5.426;2023-12-20T10:21:24;11.80;97.50
49731;DHT22;35622;52.008;5.426;2023-12-20T10:23:53;11.70;97.30
49731;DHT22;35622;52.008;5.426;2023-12-20T10:26:36;11.90;97.10
49731;DHT22;35622;52.008;5.426;2023-12-20T10:29:03;12.00;97.00
49731;DHT22;35622;52.008;5.426;2023-12-20T10:31:34;12.20;96.40
49731;DHT22;35622;52.008;5.426;2023-12-20T10:34:02;11.90;96.50
49731;DHT22;35622;52.008;5.426;2023-12-20T10:36:32;11.80;96.70
49731;DHT22;35622;52.008;5.426;2023-12-20T10:38:59;11.70;97.30
49731;DHT22;35622;52.008;5.426;2023-12-20T10:41:29;11.90;97.40
49731;DHT22;35622;52.008;5.426;2023-12-20T10:44:04;11.90;97.10
49731;DHT22;35622;52.008;5.426;2023-12-20T10:46:31;12.10;97.10
49731;DHT22;35622;52.008;5.426;2023-12-20T10:49:02;12.20;96.70
49731;DHT22;35622;52.008;5.426;2023-12-20T10:51:28;12.30;97.00
49731;DHT22;35622;52.008;5.426;2023-12-20T10:53:56;12.30;96.20
49731;DHT22;35622;52.008;5.426;2023-12-20T10:56:22;12.40;96.30
49731;DHT22;35622;52.008;5.426;2023-12-20T10:58:49;12.20;96.40
49731;DHT22;35622;52.008;5.426;2023-12-20T11:01:16;12.30;95.80
49731;DHT22;35622;52.008;5.426;2023-12-20T11:03:49;12.30;96.00
49731;DHT22;35622;52.008;5.426;2023-12-20T11:06:40;12.20;96.40
49731;DHT22;35622;52.008;5.426;2023-12-20T11:11:52;12.20;96.20
49731;DHT22;35622;52.008;5.426;2023-12-20T11:14:50;12.30;96.40
49731;DHT22;35622;52.008;5.426;2023-12-20T11:17:15;12.30;96.20
49731;DHT22;35622;52.008;5.426;2023-12-20T11:20:04;12.40;96.50
49731;DHT22;35622;52.008;5.426;2023-12-20T11:22:31;12.50;96.20
49731;DHT22;35622;52.008;5.426;2023-12-20T11:25:05;12.60;96.30
49731;DHT22;35622;52.008;5.426;2023-12-20T11:27:33;12.40;95.60
49731;DHT22;35622;52.008;5.426;2023-12-20T11:29:59;12.40;95.90
49731;DHT22;35622;52.008;5.426;2023-12-20T11:35:38;12.30;95.70
49731;DHT22;35622;52.008;5.426;2023-12-20T11:37:45;12.30;96.30
49731;DHT22;35622;52.008;5.426;2023-12-20T11:40:18;12.40;96.50
49731;DHT22;35622;52.008;5.426;2023-12-20T11:42:50;12.60;96.10
49731;DHT22;35622;52.008;5.426;2023-12-20T11:45:24;12.40;95.50
49731;DHT22;35622;52.008;5.426;2023-12-20T11:47:51;12.40;96.00
49731;DHT22;35622;52.008;5.426;2023-12-20T11:50:21;12.50;95.70
49731;DHT22;35622;52.008;5.426;2023-12-20T11:52:48;12.70;95.60
49731;DHT22;35622;52.008;5.426;2023-12-20T11:55:13;12.70;95.30
49731;DHT22;35622;52.008;5.426;2023-12-20T11:57:39;12.60;95.20
49731;DHT22;35622;52.008;5.426;2023-12-20T12:00:06;12.80;95.40
49731;DHT22;35622;52.008;5.426;2023-12-20T12:02:32;12.70;95.10
49731;DHT22;35622;52.008;5.426;2023-12-20T12:04:59;12.50;95.50
49731;DHT22;35622;52.008;5.426;2023-12-20T12:07:24;12.30;95.60
49731;DHT22;35622;52.008;5.426;2023-12-20T12:09:50;12.30;97.00
49731;DHT22;35622;52.008;5.426;2023-12-20T12:12:17;12.50;96.10
49731;DHT22;35622;52.008;5.426;2023-12-20T12:14:45;12.70;95.60
49731;DHT22;35622;52.008;5.426;2023-12-20T12:17:12;12.80;96.10
49731;DHT22;35622;52.008;5.426;2023-12-20T12:19:39;12.60;95.40
49731;DHT22;35622;52.008;5.426;2023-12-20T12:22:06;12.50;95.70
49731;DHT22;35622;52.008;5.426;2023-12-20T12:24:34;12.60;95.30
49731;DHT22;35622;52.008;5.426;2023-12-20T12:26:59;12.50;95.40
49731;DHT22;35622;52.008;5.426;2023-12-20T12:29:25;12.50;95.00
49731;DHT22;35622;52.008;5.426;2023-12-20T12:31:51;12.50;95.40
49731;DHT22;35622;52.008;5.426;2023-12-20T12:34:17;12.50;95.40
49731;DHT22;35622;52.008;5.426;2023-12-20T12:36:46;12.40;95.90
49731;DHT22;35622;52.008;5.426;2023-12-20T12:39:14;12.40;96.30
49731;DHT22;35622;52.008;5.426;2023-12-20T12:41:42;12.30;96.60
49731;DHT22;35622;52.008;5.426;2023-12-20T12:44:08;12.30;96.00
49731;DHT22;35622;52.008;5.426;2023-12-20T12:46:33;12.30;96.30
49731;DHT22;35622;52.008;5.426;2023-12-20T12:48:59;12.40;96.40
49731;DHT22;35622;52.008;5.426;2023-12-20T12:51:25;12.50;96.10
49731;DHT22;35622;52.008;5.426;2023-12-20T12:53:50;12.40;95.80
49731;DHT22;35622;52.008;5.426;2023-12-20T12:56:16;12.50;96.20
49731;DHT22;35622;52.008;5.426;2023-12-20T12:58:42;12.60;95.70
49731;DHT22;35622;52.008;5.426;2023-12-20T13:01:08;12.60;95.70
49731;DHT22;35622;52.008;5.426;2023-12-20T13:03:35;12.30;95.90
49731;DHT22;35622;52.008;5.426;2023-12-20T13:06:01;12.50;96.30
49731;DHT22;35622;52.008;5.426;2023-12-20T13:08:27;12.50;96.20
49731;DHT22;35622;52.008;5.426;2023-12-20T13:10:54;12.60;95.70
49731;DHT22;35622;52.008;5.426;2023-12-20T13:13:20;12.60;95.80
49731;DHT22;35622;52.008;5.426;2023-12-20T13:15:46;12.70;96.00
49731;DHT22;35622;52.008;5.426;2023-12-20T13:18:16;12.70;95.20
49731;DHT22;35622;52.008;5.426;2023-12-20T13:20:43;12.60;96.20
49731;DHT22;35622;52.008;5.426;2023-12-20T13:23:09;12.60;96.60
49731;DHT22;35622;52.008;5.426;2023-12-20T13:25:35;12.70;95.90
49731;DHT22;35622;52.008;5.426;2023-12-20T13:28:01;12.60;96.20
49731;DHT22;35622;52.008;5.426;2023-12-20T13:30:26;12.70;95.90
49731;DHT22;35622;52.008;5.426;2023-12-20T13:32:52;12.60;95.80
49731;DHT22;35622;52.008;5.426;2023-12-20T13:35:17;12.60;95.20
49731;DHT22;35622;52.008;5.426;2023-12-20T13:37:43;12.70;95.40
49731;DHT22;35622;52.008;5.426;2023-12-20T13:40:10;12.60;95.80
49731;DHT22;35622;52.008;5.426;2023-12-20T13:42:35;12.60;95.90
49731;DHT22;35622;52.008;5.426;2023-12-20T13:45:01;12.70;96.00
49731;DHT22;35622;52.008;5.426;2023-12-20T13:47:27;12.80;95.60
49731;DHT22;35622;52.008;5.426;2023-12-20T13:49:52;12.70;95.00
49731;DHT22;35622;52.008;5.426;2023-12-20T13:52:18;12.90;94.90
49731;DHT22;35622;52.008;5.426;2023-12-20T13:54:44;13.10;95.40
49731;DHT22;35622;52.008;5.426;2023-12-20T13:57:09;13.10;94.30
49731;DHT22;35622;52.008;5.426;2023-12-20T13:59:35;12.80;94.90
49731;DHT22;35622;52.008;5.426;2023-12-20T14:02:00;12.90;94.60
49731;DHT22;35622;52.008;5.426;2023-12-20T14:04:28;13.00;94.40
49731;DHT22;35622;52.008;5.426;2023-12-20T14:06:54;13.00;94.40
49731;DHT22;35622;52.008;5.426;2023-12-20T14:09:20;13.00;94.80
49731;DHT22;35622;52.008;5.426;2023-12-20T14:11:46;13.00;94.60
49731;DHT22;35622;52.008;5.426;2023-12-20T14:14:11;12.90;95.20
49731;DHT22;35622;52.008;5.426;2023-12-20T14:16:37;13.20;94.10
49731;DHT22;35622;52.008;5.426;2023-12-20T14:19:03;13.10;94.10
49731;DHT22;35622;52.008;5.426;2023-12-20T14:21:30;13.10;94.50
49731;DHT22;35622;52.008;5.426;2023-12-20T14:23:56;13.30;94.20
49731;DHT22;35622;52.008;5.426;2023-12-20T14:26:21;13.20;93.80
49731;DHT22;35622;52.008;5.426;2023-12-20T14:28:47;13.10;93.40
49731;DHT22;35622;52.008;5.426;2023-12-20T14:31:12;12.80;94.00
49731;DHT22;35622;52.008;5.426;2023-12-20T14:33:38;13.00;94.50
49731;DHT22;35622;52.008;5.426;2023-12-20T14:36:05;12.70;94.40
49731;DHT22;35622;52.008;5.426;2023-12-20T14:38:31;13.10;94.40
49731;DHT22;35622;52.008;5.426;2023-12-20T14:40:57;13.20;94.00
49731;DHT22;35622;52.008;5.426;2023-12-20T14:43:23;13.20;94.10
49731;DHT22;35622;52.008;5.426;2023-12-20T14:45:49;13.00;95.00
49731;DHT22;35622;52.008;5.426;2023-12-20T14:48:14;12.70;95.50
49731;DHT22;35622;52.008;5.426;2023-12-20T14:50:41;12.70;95.40
49731;DHT22;35622;52.008;5.426;2023-12-20T14:53:07;12.80;95.40
49731;DHT22;35622;52.008;5.426;2023-12-20T14:55:33;12.90;95.10
49731;DHT22;35622;52.008;5.426;2023-12-20T14:57:59;12.80;95.20
49731;DHT22;35622;52.008;5.426;2023-12-20T15:00:26;12.80;95.10
49731;DHT22;35622;52.008;5.426;2023-12-20T15:02:51;12.70;95.40
49731;DHT22;35622;52.008;5.426;2023-12-20T15:05:19;12.40;95.60
49731;DHT22;35622;52.008;5.426;2023-12-20T15:07:44;12.50;95.70
49731;DHT22;35622;52.008;5.426;2023-12-20T15:10:10;12.40;95.50
49731;DHT22;35622;52.008;5.426;2023-12-20T15:12:36;12.50;95.70
49731;DHT22;35622;52.008;5.426;2023-12-20T15:15:01;12.50;95.30
49731;DHT22;35622;52.008;5.426;2023-12-20T15:17:28;12.60;95.80
49731;DHT22;35622;52.008;5.426;2023-12-20T15:19:53;12.60;95.40
49731;DHT22;35622;52.008;5.426;2023-12-20T15:22:19;12.80;95.60
49731;DHT22;35622;52.008;5.426;2023-12-20T15:24:44;12.60;95.10
49731;DHT22;35622;52.008;5.426;2023-12-20T15:27:11;12.70;95.40
49731;DHT22;35622;52.008;5.426;2023-12-20T15:29:37;12.80;95.70
49731;DHT22;35622;52.008;5.426;2023-12-20T15:32:03;12.80;95.80